N208PE TJSJ-MDJB
Flight info
| Callsign | N208PE |
|---|---|
| Flight time | 1h 26m |
| Altitude | 6000 |
| Route | SJU RTE2 BQN B520 CDO |
| Aircraft | C208/L-SDFGR/C |
Departure
| Time | 2026-04-28 00:58 |
|---|---|
| Airport | Luis Munoz Marin International Airport (TJSJ) |
Arrival
| Time | 2026-04-28 02:24 |
|---|---|
| Airport | La Isabela International Airport (MDJB) |
| Time | Latitude | Longitude | Altitude | Speed | Heading |
|---|---|---|---|---|---|
| 2026-04-28 00:46 | 18.43930 | -66.00179 | 14 ft | 0 kts | 249° |
| 2026-04-28 00:49 | 18.43930 | -66.00180 | 14 ft | 0 kts | 249° |
| 2026-04-28 00:50 | 18.43932 | -66.00207 | 14 ft | 7 kts | 315° |
| 2026-04-28 00:51 | 18.43985 | -66.00249 | 14 ft | 9 kts | 301° |
| 2026-04-28 00:51 | 18.43983 | -66.00299 | 14 ft | 10 kts | 284° |
| 2026-04-28 00:51 | 18.44055 | -66.00358 | 14 ft | 15 kts | 341° |
| 2026-04-28 00:51 | 18.44140 | -66.00394 | 14 ft | 13 kts | 337° |
| 2026-04-28 00:52 | 18.44159 | -66.00463 | 14 ft | 15 kts | 247° |
| 2026-04-28 00:52 | 18.44109 | -66.00589 | 14 ft | 20 kts | 248° |
| 2026-04-28 00:52 | 18.44057 | -66.00711 | 14 ft | 18 kts | 246° |
| 2026-04-28 00:52 | 18.44009 | -66.00836 | 14 ft | 21 kts | 247° |
| 2026-04-28 00:53 | 18.43944 | -66.01004 | 14 ft | 26 kts | 247° |
| 2026-04-28 00:53 | 18.43873 | -66.01190 | 14 ft | 27 kts | 248° |
| 2026-04-28 00:53 | 18.43816 | -66.01339 | 14 ft | 13 kts | 248° |
| 2026-04-28 00:53 | 18.43790 | -66.01412 | 14 ft | 10 kts | 267° |
| 2026-04-28 00:54 | 18.43826 | -66.01445 | 14 ft | 0 kts | 337° |
| 2026-04-28 00:55 | 18.43862 | -66.01462 | 14 ft | 10 kts | 345° |
| 2026-04-28 00:55 | 18.43894 | -66.01441 | 14 ft | 0 kts | 67° |
| 2026-04-28 00:55 | 18.43894 | -66.01443 | 14 ft | 0 kts | 67° |
| 2026-04-28 00:57 | 18.43929 | -66.01352 | 14 ft | 39 kts | 68° |
| 2026-04-28 00:57 | 18.44130 | -66.00853 | 14 ft | 103 kts | 68° |
| 2026-04-28 00:57 | 18.44460 | -66.00073 | 205 ft | 116 kts | 66° |
| 2026-04-28 00:58 | 18.44793 | -65.99283 | 480 ft | 121 kts | 68° |
| 2026-04-28 00:58 | 18.45141 | -65.98484 | 784 ft | 123 kts | 63° |
| 2026-04-28 00:58 | 18.45832 | -65.97985 | 1081 ft | 127 kts | 6° |
| 2026-04-28 00:58 | 18.46562 | -65.98427 | 1352 ft | 131 kts | 297° |
| 2026-04-28 00:59 | 18.46668 | -65.99359 | 1652 ft | 130 kts | 259° |
| 2026-04-28 00:59 | 18.46386 | -66.00304 | 1825 ft | 139 kts | 248° |
| 2026-04-28 00:59 | 18.46082 | -66.01244 | 2117 ft | 136 kts | 249° |
| 2026-04-28 00:59 | 18.45786 | -66.02185 | 2410 ft | 133 kts | 249° |
| 2026-04-28 01:00 | 18.45501 | -66.03105 | 2699 ft | 130 kts | 249° |
| 2026-04-28 01:00 | 18.45263 | -66.04023 | 2994 ft | 129 kts | 255° |
| 2026-04-28 01:00 | 18.45131 | -66.04957 | 3292 ft | 129 kts | 262° |
| 2026-04-28 01:00 | 18.45081 | -66.05886 | 3588 ft | 128 kts | 266° |
| 2026-04-28 01:01 | 18.45075 | -66.06822 | 3884 ft | 128 kts | 268° |
| 2026-04-28 01:01 | 18.45095 | -66.07763 | 4184 ft | 128 kts | 269° |
| 2026-04-28 01:01 | 18.45128 | -66.08702 | 4484 ft | 128 kts | 270° |
| 2026-04-28 01:01 | 18.45167 | -66.09644 | 4784 ft | 128 kts | 270° |
| 2026-04-28 01:02 | 18.45210 | -66.10581 | 5083 ft | 128 kts | 270° |
| 2026-04-28 01:02 | 18.45254 | -66.11522 | 5383 ft | 128 kts | 270° |
| 2026-04-28 01:02 | 18.45300 | -66.12458 | 5682 ft | 128 kts | 270° |
| 2026-04-28 01:02 | 18.45345 | -66.13385 | 5978 ft | 128 kts | 270° |
| 2026-04-28 01:03 | 18.45391 | -66.14319 | 6277 ft | 128 kts | 270° |
| 2026-04-28 01:03 | 18.45436 | -66.15253 | 6576 ft | 127 kts | 270° |
| 2026-04-28 01:03 | 18.45482 | -66.16184 | 6875 ft | 127 kts | 270° |
| 2026-04-28 01:03 | 18.45528 | -66.17111 | 7174 ft | 127 kts | 270° |
| 2026-04-28 01:04 | 18.45573 | -66.18040 | 7474 ft | 127 kts | 270° |
| 2026-04-28 01:04 | 18.45618 | -66.18962 | 7771 ft | 126 kts | 270° |
| 2026-04-28 01:04 | 18.45663 | -66.19886 | 8071 ft | 126 kts | 270° |
| 2026-04-28 01:04 | 18.45708 | -66.20807 | 8370 ft | 126 kts | 269° |
| 2026-04-28 01:05 | 18.45753 | -66.21719 | 8668 ft | 125 kts | 269° |
| 2026-04-28 01:05 | 18.45798 | -66.22637 | 8967 ft | 125 kts | 269° |
| 2026-04-28 01:05 | 18.45842 | -66.23549 | 9266 ft | 124 kts | 269° |
| 2026-04-28 01:05 | 18.45886 | -66.24442 | 9559 ft | 123 kts | 269° |
| 2026-04-28 01:06 | 18.45930 | -66.25354 | 9834 ft | 125 kts | 269° |
| 2026-04-28 01:06 | 18.45974 | -66.26290 | 9976 ft | 134 kts | 269° |
| 2026-04-28 01:06 | 18.46022 | -66.27321 | 10018 ft | 147 kts | 270° |
| 2026-04-28 01:06 | 18.46075 | -66.28445 | 10017 ft | 159 kts | 270° |
| 2026-04-28 01:07 | 18.46133 | -66.29633 | 10008 ft | 165 kts | 270° |
| 2026-04-28 01:07 | 18.46193 | -66.30851 | 10003 ft | 168 kts | 270° |
| 2026-04-28 01:07 | 18.46254 | -66.32086 | 10000 ft | 169 kts | 270° |
| 2026-04-28 01:07 | 18.46294 | -66.32910 | 9999 ft | 170 kts | 270° |
| 2026-04-28 01:08 | 18.46376 | -66.34582 | 9995 ft | 171 kts | 270° |
| 2026-04-28 01:08 | 18.46436 | -66.35832 | 9994 ft | 171 kts | 270° |
| 2026-04-28 01:08 | 18.46497 | -66.37084 | 9994 ft | 171 kts | 270° |
| 2026-04-28 01:08 | 18.46557 | -66.38339 | 9994 ft | 171 kts | 270° |
| 2026-04-28 01:09 | 18.46616 | -66.39571 | 9992 ft | 169 kts | 270° |
| 2026-04-28 01:09 | 18.46676 | -66.40808 | 9992 ft | 168 kts | 270° |
| 2026-04-28 01:09 | 18.46735 | -66.42038 | 9993 ft | 168 kts | 270° |
| 2026-04-28 01:09 | 18.46792 | -66.43251 | 9995 ft | 169 kts | 270° |
| 2026-04-28 01:10 | 18.46852 | -66.44509 | 9995 ft | 170 kts | 270° |
| 2026-04-28 01:10 | 18.46911 | -66.45758 | 9993 ft | 171 kts | 270° |
| 2026-04-28 01:10 | 18.46970 | -66.46996 | 9992 ft | 171 kts | 270° |
| 2026-04-28 01:10 | 18.47030 | -66.48251 | 9992 ft | 171 kts | 270° |
| 2026-04-28 01:11 | 18.47089 | -66.49505 | 9992 ft | 171 kts | 270° |
| 2026-04-28 01:11 | 18.47149 | -66.50761 | 9991 ft | 171 kts | 270° |
| 2026-04-28 01:11 | 18.47208 | -66.52016 | 9991 ft | 172 kts | 270° |
| 2026-04-28 01:11 | 18.47267 | -66.53269 | 9991 ft | 172 kts | 270° |
| 2026-04-28 01:12 | 18.47327 | -66.54530 | 9991 ft | 172 kts | 270° |
| 2026-04-28 01:12 | 18.47386 | -66.55787 | 9991 ft | 172 kts | 270° |
| 2026-04-28 01:12 | 18.47444 | -66.57027 | 9992 ft | 172 kts | 270° |
| 2026-04-28 01:12 | 18.47503 | -66.58284 | 9994 ft | 172 kts | 270° |
| 2026-04-28 01:13 | 18.47561 | -66.59541 | 9994 ft | 172 kts | 270° |
| 2026-04-28 01:13 | 18.47673 | -66.62055 | 9994 ft | 172 kts | 270° |
| 2026-04-28 01:13 | 18.47729 | -66.63314 | 9993 ft | 172 kts | 270° |
| 2026-04-28 01:14 | 18.47784 | -66.64574 | 9993 ft | 172 kts | 270° |
| 2026-04-28 01:14 | 18.47839 | -66.65831 | 9993 ft | 172 kts | 270° |
| 2026-04-28 01:14 | 18.47894 | -66.67092 | 9993 ft | 172 kts | 270° |
| 2026-04-28 01:14 | 18.47948 | -66.68348 | 9993 ft | 172 kts | 270° |
| 2026-04-28 01:15 | 18.47984 | -66.69182 | 9992 ft | 172 kts | 270° |
| 2026-04-28 01:15 | 18.48039 | -66.70443 | 9991 ft | 172 kts | 270° |
| 2026-04-28 01:15 | 18.48111 | -66.72110 | 9991 ft | 172 kts | 270° |
| 2026-04-28 01:15 | 18.48166 | -66.73369 | 9991 ft | 172 kts | 270° |
| 2026-04-28 01:16 | 18.48220 | -66.74628 | 9992 ft | 172 kts | 270° |
| 2026-04-28 01:16 | 18.48256 | -66.75466 | 9992 ft | 172 kts | 270° |
| 2026-04-28 01:16 | 18.48310 | -66.76725 | 9992 ft | 172 kts | 270° |
| 2026-04-28 01:16 | 18.48364 | -66.77984 | 9992 ft | 172 kts | 270° |
| 2026-04-28 01:17 | 18.48418 | -66.79244 | 9993 ft | 172 kts | 270° |
| 2026-04-28 01:17 | 18.48472 | -66.80505 | 9995 ft | 172 kts | 270° |
| 2026-04-28 01:17 | 18.48526 | -66.81763 | 9997 ft | 172 kts | 270° |
| 2026-04-28 01:17 | 18.48580 | -66.83020 | 9998 ft | 172 kts | 270° |
| 2026-04-28 01:18 | 18.48635 | -66.84279 | 9998 ft | 172 kts | 270° |
| 2026-04-28 01:18 | 18.48692 | -66.85540 | 9998 ft | 172 kts | 270° |
| 2026-04-28 01:18 | 18.48748 | -66.86786 | 9998 ft | 172 kts | 270° |
| 2026-04-28 01:18 | 18.48806 | -66.88049 | 9998 ft | 172 kts | 270° |
| 2026-04-28 01:19 | 18.48864 | -66.89307 | 9998 ft | 172 kts | 270° |
| 2026-04-28 01:19 | 18.48922 | -66.90565 | 9998 ft | 172 kts | 270° |
| 2026-04-28 01:19 | 18.48979 | -66.91811 | 9998 ft | 172 kts | 270° |
| 2026-04-28 01:19 | 18.49036 | -66.93067 | 9998 ft | 172 kts | 270° |
| 2026-04-28 01:20 | 18.49094 | -66.94330 | 9998 ft | 172 kts | 270° |
| 2026-04-28 01:20 | 18.49151 | -66.95588 | 9998 ft | 172 kts | 270° |
| 2026-04-28 01:20 | 18.49209 | -66.96850 | 9998 ft | 172 kts | 270° |
| 2026-04-28 01:20 | 18.49266 | -66.98107 | 9998 ft | 172 kts | 270° |
| 2026-04-28 01:21 | 18.49323 | -66.99363 | 9998 ft | 172 kts | 270° |
| 2026-04-28 01:21 | 18.49380 | -67.00624 | 9998 ft | 172 kts | 270° |
| 2026-04-28 01:21 | 18.49437 | -67.01881 | 9998 ft | 172 kts | 270° |
| 2026-04-28 01:21 | 18.49494 | -67.03147 | 9998 ft | 172 kts | 270° |
| 2026-04-28 01:22 | 18.49551 | -67.04392 | 9999 ft | 172 kts | 270° |
| 2026-04-28 01:22 | 18.49607 | -67.05648 | 10000 ft | 172 kts | 270° |
| 2026-04-28 01:22 | 18.49664 | -67.06906 | 10000 ft | 172 kts | 270° |
| 2026-04-28 01:22 | 18.49720 | -67.08165 | 10000 ft | 172 kts | 270° |
| 2026-04-28 01:23 | 18.49777 | -67.09425 | 10000 ft | 172 kts | 269° |
| 2026-04-28 01:23 | 18.49800 | -67.10683 | 10000 ft | 172 kts | 267° |
| 2026-04-28 01:23 | 18.49796 | -67.11942 | 10000 ft | 172 kts | 266° |
| 2026-04-28 01:23 | 18.49782 | -67.13200 | 10000 ft | 172 kts | 266° |
| 2026-04-28 01:24 | 18.49763 | -67.14460 | 10000 ft | 172 kts | 266° |
| 2026-04-28 01:24 | 18.49741 | -67.15715 | 10000 ft | 171 kts | 266° |
| 2026-04-28 01:24 | 18.49719 | -67.16976 | 10000 ft | 171 kts | 266° |
| 2026-04-28 01:24 | 18.49696 | -67.18216 | 10000 ft | 171 kts | 266° |
| 2026-04-28 01:25 | 18.49672 | -67.19462 | 10000 ft | 171 kts | 266° |
| 2026-04-28 01:25 | 18.49648 | -67.20734 | 10000 ft | 171 kts | 266° |
| 2026-04-28 01:25 | 18.49623 | -67.21989 | 10000 ft | 171 kts | 266° |
| 2026-04-28 01:25 | 18.49598 | -67.23251 | 10000 ft | 171 kts | 266° |
| 2026-04-28 01:26 | 18.49574 | -67.24506 | 10000 ft | 171 kts | 266° |
| 2026-04-28 01:26 | 18.49549 | -67.25747 | 9999 ft | 171 kts | 266° |
| 2026-04-28 01:26 | 18.49524 | -67.27002 | 9999 ft | 171 kts | 266° |
| 2026-04-28 01:26 | 18.49499 | -67.28257 | 9996 ft | 171 kts | 266° |
| 2026-04-28 01:27 | 18.49474 | -67.29512 | 9996 ft | 171 kts | 266° |
| 2026-04-28 01:27 | 18.49448 | -67.30770 | 9996 ft | 171 kts | 266° |
| 2026-04-28 01:27 | 18.49423 | -67.32023 | 9996 ft | 171 kts | 266° |
| 2026-04-28 01:27 | 18.49397 | -67.33283 | 9996 ft | 171 kts | 266° |
| 2026-04-28 01:28 | 18.49372 | -67.34519 | 9997 ft | 171 kts | 266° |
| 2026-04-28 01:28 | 18.49347 | -67.35774 | 9997 ft | 171 kts | 266° |
| 2026-04-28 01:28 | 18.49321 | -67.37029 | 9997 ft | 171 kts | 266° |
| 2026-04-28 01:28 | 18.49295 | -67.38279 | 9997 ft | 171 kts | 266° |
| 2026-04-28 01:29 | 18.49269 | -67.39540 | 9997 ft | 171 kts | 266° |
| 2026-04-28 01:29 | 18.49243 | -67.40792 | 9997 ft | 171 kts | 266° |
| 2026-04-28 01:29 | 18.49217 | -67.42047 | 9996 ft | 171 kts | 266° |
| 2026-04-28 01:29 | 18.49191 | -67.43304 | 9996 ft | 171 kts | 266° |
| 2026-04-28 01:30 | 18.49165 | -67.44544 | 9995 ft | 171 kts | 266° |
| 2026-04-28 01:30 | 18.49139 | -67.45798 | 9994 ft | 171 kts | 266° |
| 2026-04-28 01:30 | 18.49112 | -67.47058 | 9993 ft | 171 kts | 266° |
| 2026-04-28 01:30 | 18.49086 | -67.48315 | 9991 ft | 171 kts | 266° |
| 2026-04-28 01:31 | 18.49059 | -67.49569 | 9989 ft | 171 kts | 266° |
| 2026-04-28 01:31 | 18.49033 | -67.50823 | 9979 ft | 172 kts | 266° |
| 2026-04-28 01:31 | 18.49006 | -67.52081 | 9970 ft | 172 kts | 266° |
| 2026-04-28 01:31 | 18.48980 | -67.53320 | 9968 ft | 171 kts | 266° |
| 2026-04-28 01:32 | 18.48953 | -67.54573 | 9968 ft | 171 kts | 266° |
| 2026-04-28 01:32 | 18.48926 | -67.55829 | 9968 ft | 171 kts | 266° |
| 2026-04-28 01:32 | 18.48899 | -67.57083 | 9968 ft | 171 kts | 266° |
| 2026-04-28 01:32 | 18.48872 | -67.58332 | 9968 ft | 171 kts | 266° |
| 2026-04-28 01:33 | 18.48845 | -67.59583 | 9968 ft | 171 kts | 266° |
| 2026-04-28 01:33 | 18.48818 | -67.60824 | 9968 ft | 171 kts | 266° |
| 2026-04-28 01:33 | 18.48791 | -67.62076 | 9968 ft | 171 kts | 266° |
| 2026-04-28 01:33 | 18.48763 | -67.63321 | 9968 ft | 171 kts | 266° |
| 2026-04-28 01:34 | 18.48736 | -67.64579 | 9968 ft | 171 kts | 266° |
| 2026-04-28 01:34 | 18.48708 | -67.65830 | 9968 ft | 171 kts | 266° |
| 2026-04-28 01:34 | 18.48681 | -67.67077 | 9968 ft | 171 kts | 266° |
| 2026-04-28 01:34 | 18.48653 | -67.68332 | 9968 ft | 171 kts | 266° |
| 2026-04-28 01:35 | 18.48625 | -67.69580 | 9968 ft | 171 kts | 266° |
| 2026-04-28 01:35 | 18.48597 | -67.70834 | 9968 ft | 171 kts | 266° |
| 2026-04-28 01:35 | 18.48569 | -67.72084 | 9968 ft | 171 kts | 266° |
| 2026-04-28 01:35 | 18.48542 | -67.73322 | 9968 ft | 171 kts | 266° |
| 2026-04-28 01:36 | 18.48514 | -67.74574 | 9969 ft | 171 kts | 266° |
| 2026-04-28 01:36 | 18.48485 | -67.75827 | 9969 ft | 171 kts | 266° |
| 2026-04-28 01:36 | 18.48457 | -67.77080 | 9969 ft | 171 kts | 266° |
| 2026-04-28 01:36 | 18.48429 | -67.78335 | 9969 ft | 171 kts | 266° |
| 2026-04-28 01:37 | 18.48401 | -67.79573 | 9969 ft | 171 kts | 266° |
| 2026-04-28 01:37 | 18.48372 | -67.80825 | 9969 ft | 171 kts | 266° |
| 2026-04-28 01:37 | 18.48343 | -67.82077 | 9969 ft | 171 kts | 266° |
| 2026-04-28 01:37 | 18.48315 | -67.83328 | 9969 ft | 171 kts | 266° |
| 2026-04-28 01:38 | 18.48286 | -67.84582 | 9969 ft | 171 kts | 266° |
| 2026-04-28 01:38 | 18.48257 | -67.85833 | 9969 ft | 171 kts | 266° |
| 2026-04-28 01:38 | 18.48228 | -67.87083 | 9969 ft | 171 kts | 266° |
| 2026-04-28 01:38 | 18.48199 | -67.88338 | 9969 ft | 171 kts | 266° |
| 2026-04-28 01:39 | 18.48170 | -67.89573 | 9969 ft | 171 kts | 266° |
| 2026-04-28 01:39 | 18.48141 | -67.90824 | 9969 ft | 171 kts | 266° |
| 2026-04-28 01:39 | 18.48112 | -67.92077 | 9969 ft | 171 kts | 266° |
| 2026-04-28 01:39 | 18.48083 | -67.93323 | 9969 ft | 171 kts | 266° |
| 2026-04-28 01:40 | 18.48053 | -67.94579 | 9969 ft | 171 kts | 266° |
| 2026-04-28 01:40 | 18.48024 | -67.95831 | 9969 ft | 171 kts | 265° |
| 2026-04-28 01:40 | 18.47994 | -67.97082 | 9969 ft | 171 kts | 265° |
| 2026-04-28 01:40 | 18.47965 | -67.98334 | 9970 ft | 171 kts | 265° |
| 2026-04-28 01:41 | 18.47936 | -67.99570 | 9970 ft | 171 kts | 266° |
| 2026-04-28 01:41 | 18.47909 | -68.00834 | 9970 ft | 171 kts | 266° |
| 2026-04-28 01:41 | 18.47883 | -68.02087 | 9970 ft | 171 kts | 266° |
| 2026-04-28 01:41 | 18.47857 | -68.03321 | 9970 ft | 171 kts | 266° |
| 2026-04-28 01:42 | 18.47831 | -68.04571 | 9970 ft | 171 kts | 266° |
| 2026-04-28 01:42 | 18.47805 | -68.05828 | 9970 ft | 171 kts | 266° |
| 2026-04-28 01:42 | 18.47779 | -68.07077 | 9970 ft | 171 kts | 266° |
| 2026-04-28 01:42 | 18.47752 | -68.08333 | 9970 ft | 171 kts | 266° |
| 2026-04-28 01:43 | 18.47726 | -68.09582 | 9970 ft | 171 kts | 266° |
| 2026-04-28 01:43 | 18.47700 | -68.10833 | 9970 ft | 171 kts | 266° |
| 2026-04-28 01:43 | 18.47673 | -68.12085 | 9970 ft | 171 kts | 266° |
| 2026-04-28 01:43 | 18.47647 | -68.13336 | 9970 ft | 171 kts | 266° |
| 2026-04-28 01:44 | 18.47620 | -68.14587 | 9970 ft | 171 kts | 266° |
| 2026-04-28 01:44 | 18.47593 | -68.15841 | 9970 ft | 171 kts | 266° |
| 2026-04-28 01:44 | 18.47567 | -68.17092 | 9970 ft | 171 kts | 266° |
| 2026-04-28 01:44 | 18.47540 | -68.18344 | 9970 ft | 171 kts | 266° |
| 2026-04-28 01:45 | 18.47513 | -68.19581 | 9970 ft | 171 kts | 266° |
| 2026-04-28 01:45 | 18.47486 | -68.20831 | 9970 ft | 171 kts | 266° |
| 2026-04-28 01:45 | 18.47459 | -68.22089 | 9970 ft | 171 kts | 266° |
| 2026-04-28 01:45 | 18.47432 | -68.23343 | 9970 ft | 171 kts | 266° |
| 2026-04-28 01:46 | 18.47405 | -68.24595 | 9970 ft | 171 kts | 266° |
| 2026-04-28 01:46 | 18.47377 | -68.25847 | 9970 ft | 171 kts | 266° |
| 2026-04-28 01:46 | 18.47350 | -68.27098 | 9970 ft | 171 kts | 266° |
| 2026-04-28 01:46 | 18.47323 | -68.28345 | 9970 ft | 171 kts | 266° |
| 2026-04-28 01:47 | 18.47295 | -68.29586 | 9970 ft | 171 kts | 266° |
| 2026-04-28 01:47 | 18.47268 | -68.30839 | 9970 ft | 171 kts | 266° |
| 2026-04-28 01:47 | 18.47240 | -68.32094 | 9970 ft | 171 kts | 266° |
| 2026-04-28 01:47 | 18.47212 | -68.33346 | 9970 ft | 171 kts | 266° |
| 2026-04-28 01:48 | 18.47184 | -68.34603 | 9970 ft | 171 kts | 266° |
| 2026-04-28 01:48 | 18.47156 | -68.35838 | 9970 ft | 171 kts | 266° |
| 2026-04-28 01:48 | 18.47128 | -68.37084 | 9970 ft | 171 kts | 266° |
| 2026-04-28 01:48 | 18.47100 | -68.38357 | 9970 ft | 171 kts | 266° |
| 2026-04-28 01:49 | 18.47072 | -68.39610 | 9970 ft | 171 kts | 266° |
| 2026-04-28 01:49 | 18.47044 | -68.40847 | 9970 ft | 171 kts | 266° |
| 2026-04-28 01:49 | 18.47015 | -68.42100 | 9970 ft | 171 kts | 266° |
| 2026-04-28 01:49 | 18.46987 | -68.43350 | 9970 ft | 171 kts | 266° |
| 2026-04-28 01:50 | 18.46958 | -68.44605 | 9970 ft | 171 kts | 266° |
| 2026-04-28 01:50 | 18.46930 | -68.45852 | 9970 ft | 171 kts | 266° |
| 2026-04-28 01:50 | 18.46901 | -68.47110 | 9970 ft | 171 kts | 266° |
| 2026-04-28 01:50 | 18.46872 | -68.48364 | 9970 ft | 171 kts | 266° |
| 2026-04-28 01:51 | 18.46843 | -68.49618 | 9970 ft | 171 kts | 266° |
| 2026-04-28 01:51 | 18.46814 | -68.50853 | 9970 ft | 171 kts | 266° |
| 2026-04-28 01:51 | 18.46785 | -68.52104 | 9970 ft | 171 kts | 266° |
| 2026-04-28 01:51 | 18.46756 | -68.53358 | 9970 ft | 171 kts | 266° |
| 2026-04-28 01:52 | 18.46727 | -68.54613 | 9970 ft | 171 kts | 266° |
| 2026-04-28 01:52 | 18.46698 | -68.55863 | 9970 ft | 171 kts | 266° |
| 2026-04-28 01:52 | 18.46668 | -68.57117 | 9970 ft | 171 kts | 266° |
| 2026-04-28 01:52 | 18.46639 | -68.58368 | 9970 ft | 171 kts | 266° |
| 2026-04-28 01:53 | 18.46609 | -68.59620 | 9970 ft | 171 kts | 266° |
| 2026-04-28 01:53 | 18.46580 | -68.60872 | 9970 ft | 171 kts | 266° |
| 2026-04-28 01:53 | 18.46550 | -68.62129 | 9970 ft | 171 kts | 266° |
| 2026-04-28 01:53 | 18.46520 | -68.63380 | 9970 ft | 171 kts | 265° |
| 2026-04-28 01:54 | 18.46491 | -68.64617 | 9969 ft | 171 kts | 265° |
| 2026-04-28 01:54 | 18.46461 | -68.65868 | 9969 ft | 171 kts | 265° |
| 2026-04-28 01:54 | 18.46431 | -68.67118 | 9969 ft | 171 kts | 265° |
| 2026-04-28 01:54 | 18.46400 | -68.68371 | 9969 ft | 171 kts | 266° |
| 2026-04-28 01:55 | 18.46370 | -68.69627 | 9969 ft | 171 kts | 266° |
| 2026-04-28 01:55 | 18.46340 | -68.70882 | 9969 ft | 171 kts | 265° |
| 2026-04-28 01:55 | 18.46309 | -68.72134 | 9969 ft | 171 kts | 265° |
| 2026-04-28 01:55 | 18.46279 | -68.73373 | 9969 ft | 171 kts | 265° |
| 2026-04-28 01:56 | 18.46248 | -68.74640 | 9969 ft | 171 kts | 265° |
| 2026-04-28 01:56 | 18.46218 | -68.75878 | 9969 ft | 171 kts | 265° |
| 2026-04-28 01:56 | 18.46187 | -68.77131 | 9969 ft | 171 kts | 265° |
| 2026-04-28 01:56 | 18.46156 | -68.78386 | 9969 ft | 171 kts | 265° |
| 2026-04-28 01:57 | 18.46122 | -68.79637 | 9969 ft | 171 kts | 265° |
| 2026-04-28 01:57 | 18.46086 | -68.80888 | 9969 ft | 171 kts | 265° |
| 2026-04-28 01:57 | 18.46051 | -68.82143 | 9969 ft | 171 kts | 265° |
| 2026-04-28 01:57 | 18.46015 | -68.83392 | 9969 ft | 171 kts | 265° |
| 2026-04-28 01:58 | 18.45978 | -68.84645 | 9969 ft | 171 kts | 265° |
| 2026-04-28 01:58 | 18.45942 | -68.85898 | 9969 ft | 171 kts | 265° |
| 2026-04-28 01:58 | 18.45906 | -68.87148 | 9969 ft | 171 kts | 265° |
| 2026-04-28 01:58 | 18.45869 | -68.88400 | 9969 ft | 171 kts | 265° |
| 2026-04-28 01:59 | 18.45833 | -68.89636 | 9969 ft | 171 kts | 265° |
| 2026-04-28 01:59 | 18.45796 | -68.90888 | 9969 ft | 171 kts | 265° |
| 2026-04-28 01:59 | 18.45759 | -68.92139 | 9968 ft | 171 kts | 265° |
| 2026-04-28 01:59 | 18.45722 | -68.93390 | 9968 ft | 171 kts | 265° |
| 2026-04-28 02:00 | 18.45685 | -68.94645 | 9969 ft | 171 kts | 265° |
| 2026-04-28 02:00 | 18.45648 | -68.95897 | 9969 ft | 171 kts | 265° |
| 2026-04-28 02:00 | 18.45624 | -68.96729 | 9969 ft | 171 kts | 265° |
| 2026-04-28 02:00 | 18.45586 | -68.97983 | 9969 ft | 171 kts | 265° |
| 2026-04-28 02:01 | 18.45549 | -68.99234 | 9969 ft | 171 kts | 265° |
| 2026-04-28 02:01 | 18.45512 | -69.00487 | 9969 ft | 171 kts | 265° |
| 2026-04-28 02:01 | 18.45474 | -69.01740 | 9969 ft | 171 kts | 265° |
| 2026-04-28 02:01 | 18.45436 | -69.02993 | 9969 ft | 171 kts | 265° |
| 2026-04-28 02:02 | 18.45399 | -69.04228 | 9970 ft | 171 kts | 265° |
| 2026-04-28 02:02 | 18.45362 | -69.05477 | 9970 ft | 171 kts | 265° |
| 2026-04-28 02:02 | 18.45324 | -69.06731 | 9970 ft | 171 kts | 265° |
| 2026-04-28 02:02 | 18.45286 | -69.07981 | 9970 ft | 171 kts | 265° |
| 2026-04-28 02:03 | 18.45248 | -69.09237 | 9970 ft | 171 kts | 265° |
| 2026-04-28 02:03 | 18.45210 | -69.10487 | 9970 ft | 171 kts | 265° |
| 2026-04-28 02:03 | 18.45172 | -69.11739 | 9970 ft | 171 kts | 265° |
| 2026-04-28 02:03 | 18.45134 | -69.12992 | 9970 ft | 171 kts | 265° |
| 2026-04-28 02:04 | 18.45096 | -69.14233 | 9969 ft | 171 kts | 265° |
| 2026-04-28 02:04 | 18.45057 | -69.15502 | 9969 ft | 171 kts | 265° |
| 2026-04-28 02:04 | 18.45019 | -69.16737 | 9968 ft | 171 kts | 265° |
| 2026-04-28 02:04 | 18.44980 | -69.17991 | 9968 ft | 171 kts | 265° |
| 2026-04-28 02:05 | 18.44941 | -69.19243 | 9968 ft | 171 kts | 265° |
| 2026-04-28 02:05 | 18.44903 | -69.20495 | 9968 ft | 171 kts | 265° |
| 2026-04-28 02:05 | 18.44864 | -69.21748 | 9968 ft | 171 kts | 265° |
| 2026-04-28 02:05 | 18.44825 | -69.23001 | 9968 ft | 171 kts | 265° |
| 2026-04-28 02:06 | 18.44786 | -69.24255 | 9968 ft | 171 kts | 265° |
| 2026-04-28 02:06 | 18.44747 | -69.25508 | 9968 ft | 171 kts | 265° |
| 2026-04-28 02:06 | 18.44708 | -69.26759 | 9968 ft | 171 kts | 265° |
| 2026-04-28 02:06 | 18.44669 | -69.28010 | 9967 ft | 171 kts | 265° |
| 2026-04-28 02:07 | 18.44629 | -69.29264 | 9967 ft | 171 kts | 265° |
| 2026-04-28 02:07 | 18.44590 | -69.30515 | 9967 ft | 171 kts | 265° |
| 2026-04-28 02:07 | 18.44551 | -69.31766 | 9967 ft | 171 kts | 265° |
| 2026-04-28 02:07 | 18.44511 | -69.33025 | 9967 ft | 171 kts | 265° |
| 2026-04-28 02:08 | 18.44471 | -69.34280 | 9967 ft | 171 kts | 265° |
| 2026-04-28 02:08 | 18.44432 | -69.35516 | 9967 ft | 171 kts | 265° |
| 2026-04-28 02:08 | 18.44392 | -69.36768 | 9967 ft | 171 kts | 265° |
| 2026-04-28 02:08 | 18.44352 | -69.38021 | 9967 ft | 171 kts | 265° |
| 2026-04-28 02:09 | 18.44312 | -69.39271 | 9965 ft | 171 kts | 265° |
| 2026-04-28 02:09 | 18.44272 | -69.40528 | 9965 ft | 171 kts | 265° |
| 2026-04-28 02:09 | 18.44232 | -69.41782 | 9965 ft | 171 kts | 265° |
| 2026-04-28 02:09 | 18.44192 | -69.43038 | 9964 ft | 171 kts | 265° |
| 2026-04-28 02:10 | 18.44151 | -69.44291 | 9964 ft | 171 kts | 265° |
| 2026-04-28 02:10 | 18.44112 | -69.45529 | 9964 ft | 171 kts | 265° |
| 2026-04-28 02:10 | 18.44071 | -69.46796 | 9964 ft | 171 kts | 265° |
| 2026-04-28 02:10 | 18.44031 | -69.48035 | 9964 ft | 171 kts | 265° |
| 2026-04-28 02:11 | 18.43990 | -69.49287 | 9964 ft | 171 kts | 265° |
| 2026-04-28 02:11 | 18.43949 | -69.50542 | 9963 ft | 171 kts | 265° |
| 2026-04-28 02:11 | 18.43908 | -69.51801 | 9962 ft | 171 kts | 265° |
| 2026-04-28 02:11 | 18.43867 | -69.53054 | 9962 ft | 171 kts | 265° |
| 2026-04-28 02:12 | 18.43825 | -69.54333 | 9817 ft | 179 kts | 265° |
| 2026-04-28 02:12 | 18.43780 | -69.55656 | 9533 ft | 185 kts | 265° |
| 2026-04-28 02:12 | 18.43738 | -69.56973 | 9227 ft | 176 kts | 265° |
| 2026-04-28 02:12 | 18.43698 | -69.58245 | 8916 ft | 169 kts | 265° |
| 2026-04-28 02:13 | 18.43661 | -69.59467 | 8611 ft | 165 kts | 265° |
| 2026-04-28 02:13 | 18.43628 | -69.60662 | 8309 ft | 163 kts | 266° |
| 2026-04-28 02:13 | 18.43594 | -69.61884 | 8014 ft | 169 kts | 266° |
| 2026-04-28 02:13 | 18.43556 | -69.63136 | 7719 ft | 173 kts | 266° |
| 2026-04-28 02:14 | 18.43515 | -69.64402 | 7421 ft | 174 kts | 266° |
| 2026-04-28 02:14 | 18.43456 | -69.65672 | 7126 ft | 173 kts | 265° |
| 2026-04-28 02:14 | 18.43392 | -69.66945 | 6820 ft | 174 kts | 265° |
| 2026-04-28 02:14 | 18.43339 | -69.68223 | 6521 ft | 175 kts | 266° |
| 2026-04-28 02:15 | 18.43229 | -69.70760 | 5926 ft | 174 kts | 266° |
| 2026-04-28 02:15 | 18.43170 | -69.72038 | 5625 ft | 174 kts | 266° |
| 2026-04-28 02:15 | 18.43108 | -69.73309 | 5326 ft | 174 kts | 266° |
| 2026-04-28 02:16 | 18.43044 | -69.74585 | 5025 ft | 174 kts | 266° |
| 2026-04-28 02:16 | 18.42980 | -69.75852 | 4725 ft | 173 kts | 266° |
| 2026-04-28 02:16 | 18.42917 | -69.77119 | 4425 ft | 173 kts | 266° |
| 2026-04-28 02:16 | 18.42857 | -69.78388 | 4125 ft | 173 kts | 266° |
| 2026-04-28 02:17 | 18.42798 | -69.79656 | 3825 ft | 173 kts | 266° |
| 2026-04-28 02:17 | 18.42741 | -69.80929 | 3523 ft | 173 kts | 266° |
| 2026-04-28 02:17 | 18.42686 | -69.82194 | 3223 ft | 173 kts | 266° |
| 2026-04-28 02:17 | 18.42634 | -69.83445 | 2927 ft | 173 kts | 266° |
| 2026-04-28 02:18 | 18.42583 | -69.84710 | 2627 ft | 173 kts | 266° |
| 2026-04-28 02:18 | 18.42536 | -69.85971 | 2327 ft | 172 kts | 266° |
| 2026-04-28 02:18 | 18.42490 | -69.87219 | 2119 ft | 167 kts | 266° |
| 2026-04-28 02:18 | 18.42444 | -69.88434 | 2029 ft | 169 kts | 266° |
| 2026-04-28 02:19 | 18.42396 | -69.89695 | 2007 ft | 172 kts | 266° |
| 2026-04-28 02:19 | 18.42347 | -69.90941 | 2001 ft | 172 kts | 266° |
| 2026-04-28 02:19 | 18.42418 | -69.92208 | 1999 ft | 172 kts | 280° |
| 2026-04-28 02:19 | 18.42801 | -69.93400 | 2003 ft | 173 kts | 294° |
| 2026-04-28 02:20 | 18.43526 | -69.94394 | 2009 ft | 172 kts | 317° |
| 2026-04-28 02:20 | 18.44460 | -69.95183 | 2004 ft | 172 kts | 324° |
| 2026-04-28 02:20 | 18.45433 | -69.95935 | 2001 ft | 173 kts | 325° |
| 2026-04-28 02:20 | 18.46394 | -69.96668 | 2000 ft | 173 kts | 325° |
| 2026-04-28 02:21 | 18.47371 | -69.97412 | 2000 ft | 172 kts | 325° |
| 2026-04-28 02:21 | 18.48343 | -69.98152 | 2000 ft | 173 kts | 325° |
| 2026-04-28 02:21 | 18.49130 | -69.98750 | 2001 ft | 173 kts | 325° |
| 2026-04-28 02:21 | 18.49778 | -69.99196 | 1934 ft | 165 kts | 333° |
| 2026-04-28 02:22 | 18.50840 | -69.99441 | 1645 ft | 151 kts | 5° |
| 2026-04-28 02:22 | 18.51869 | -69.99290 | 1222 ft | 150 kts | 11° |
| 2026-04-28 02:22 | 18.52890 | -69.99125 | 907 ft | 143 kts | 10° |
| 2026-04-28 02:22 | 18.53839 | -69.99002 | 740 ft | 129 kts | 9° |
| 2026-04-28 02:23 | 18.54650 | -69.98910 | 534 ft | 110 kts | 7° |
| 2026-04-28 02:23 | 18.55370 | -69.98807 | 339 ft | 101 kts | 10° |
| 2026-04-28 02:23 | 18.56094 | -69.98708 | 209 ft | 111 kts | 9° |
| 2026-04-28 02:23 | 18.56835 | -69.98617 | 93 ft | 100 kts | 8° |
| 2026-04-28 02:24 | 18.57429 | -69.98544 | 84 ft | 69 kts | 10° |
| 2026-04-28 02:24 | 18.57719 | -69.98506 | 84 ft | 21 kts | 5° |
| 2026-04-28 02:24 | 18.57826 | -69.98494 | 84 ft | 17 kts | 6° |
| 2026-04-28 02:24 | 18.57947 | -69.98461 | 84 ft | 13 kts | 48° |
| 2026-04-28 02:25 | 18.57955 | -69.98386 | 84 ft | 5 kts | 96° |
| 2026-04-28 02:25 | 18.57954 | -69.98381 | 84 ft | 0 kts | 96° |
| 2026-04-28 02:25 | 18.57954 | -69.98379 | 84 ft | 3 kts | 96° |
| 2026-04-28 02:25 | 18.57931 | -69.98327 | 84 ft | 8 kts | 144° |
| 2026-04-28 02:26 | 18.57864 | -69.98319 | 84 ft | 14 kts | 185° |
| 2026-04-28 02:26 | 18.57789 | -69.98327 | 84 ft | 6 kts | 186° |
| 2026-04-28 02:26 | 18.57706 | -69.98339 | 84 ft | 14 kts | 192° |
| 2026-04-28 02:26 | 18.57643 | -69.98347 | 84 ft | 3 kts | 148° |
| 2026-04-28 02:27 | 18.57637 | -69.98333 | 84 ft | 0 kts | 96° |